Airfield :
LOGIN :

Register | Disclaimer

   EN    FR    IT 

 










Legend :    VFR   Marginal VFR   IFR   Intensive IFR   Very Intensive IFR
Visi :
Ceiling :
>= 8 km
>= 3000ft
5 to 8 km
1000 to 3000 ft
1500m to 5 km
500 to 1000 ft
800 to 1500m
200 to 500 ft
< 800m
< 200 ft
Symbols :   Thunderstorms  Fog  Heavy snow  Heavy precipitations  Wind > 20 kt
SIGMETs :     Misc.  Thunderstorms  Icing  Turbulence  Mountain Waves  Volcanic Ashes







- Airport Elevation : 106 ft
- IATA code : NRN


EDLV - Weeze

CURRENT METAR :
  • 211150Z 27004KT 170V320 9999 FEW045 21/10 Q1024

EXPIRED METARs :
  • 211120Z 22005KT 120V260 9999 SCT045 20/10 Q1024
  • 211050Z 24005KT 170V270 9999 SCT046 20/10 Q1024
  • 211020Z 23007KT 180V260 9999 BKN038 19/11 Q1025
  • 210950Z VRB04KT 9999 SCT035 20/11 Q1025
  • 210920Z 21005KT 180V260 9999 FEW031 19/12 Q1025

TAF TAF EDLV
Valid from the 21 at 12:00 until the 22 at 12:00 UTC


211100Z 2112/2212 26005KT 9999 FEW040
No reported NOTAMs for that airfield.



MET'MAP, your aeronautical weather chart ! - Copyright ORBIFLY December 2007 - Disclaimer

ORBIFLY MET'MAP TEAM :

Programming & Development : Alexandra Zaïnal
Concept & Development : Baudouin d'Aumeries
Co-Development & Prog : Marc-Olivier Méhu
Technical & hardware support : Manuel Goepfert

Contact : metmap@orbifly.com




SOURCES & CREDITS :

   NOAA